createdAt,value
2023-01-17T00:01:54.087Z,78.30
2023-01-17T00:12:27.863Z,48.80
2023-01-17T00:14:56.438Z,48.60
2023-01-17T00:22:58.386Z,80.50
2023-01-17T00:25:47.459Z,50.00
2023-01-17T00:28:14.766Z,78.40
2023-01-17T00:38:07.030Z,49.80
2023-01-17T00:46:06.958Z,48.40
2023-01-17T00:48:53.499Z,50.80
2023-01-17T00:51:40.532Z,51.60
2023-01-17T00:54:27.642Z,52.00
2023-01-17T00:57:15.104Z,48.80
2023-01-17T01:00:00.640Z,79.70
2023-01-17T01:08:20.608Z,77.30
2023-01-17T01:11:07.831Z,48.90
2023-01-17T01:16:39.335Z,78.70
2023-01-17T01:19:25.043Z,78.20
2023-01-17T01:24:56.792Z,78.80
2023-01-17T01:27:43.414Z,49.70
2023-01-17T01:30:29.810Z,79.10
2023-01-17T01:38:12.676Z,79.00
2023-01-17T01:40:45.911Z,79.80
2023-01-17T01:43:17.484Z,49.30
2023-01-17T01:45:50.134Z,78.80
2023-01-17T01:48:34.728Z,77.80
2023-01-17T01:51:07.028Z,77.60
2023-01-17T01:53:38.472Z,79.00
2023-01-17T01:56:11.898Z,80.50
2023-01-17T01:58:44.784Z,52.80
2023-01-17T02:03:43.176Z,52.00
2023-01-17T02:06:25.888Z,51.60
2023-01-17T02:08:54.298Z,48.00
2023-01-17T02:11:23.473Z,77.00
2023-01-17T02:16:34.775Z,74.00
2023-01-17T02:19:31.437Z,77.30
2023-01-17T02:22:15.693Z,51.50
2023-01-17T02:25:07.102Z,79.00
2023-01-17T02:27:49.464Z,79.00
2023-01-17T02:30:34.040Z,79.70
2023-01-17T02:33:18.051Z,79.80
2023-01-17T02:35:55.634Z,50.40
2023-01-17T02:38:35.301Z,50.30
2023-01-17T02:41:07.907Z,77.70
2023-01-17T02:43:38.274Z,50.40
2023-01-17T02:46:09.835Z,80.50
2023-01-17T02:48:39.308Z,50.00
2023-01-17T02:51:36.762Z,49.00
2023-01-17T02:54:27.663Z,50.90
2023-01-17T02:57:14.227Z,51.00
2023-01-17T02:59:53.432Z,50.20
2023-01-17T03:02:28.733Z,70.10
2023-01-17T03:05:02.814Z,50.00
2023-01-17T03:10:03.588Z,50.70
2023-01-17T03:12:34.174Z,51.10
2023-01-17T03:15:02.346Z,80.90
2023-01-17T03:17:34.104Z,50.40
2023-01-17T03:22:30.681Z,81.00
2023-01-17T03:27:27.232Z,79.70
2023-01-17T03:29:55.363Z,79.70
2023-01-17T03:34:53.321Z,79.90
2023-01-17T03:37:21.499Z,78.10
2023-01-17T03:39:49.625Z,78.50
2023-01-17T03:42:17.758Z,77.10
2023-01-17T03:44:45.895Z,76.20
2023-01-17T03:47:14.052Z,76.00
2023-01-17T03:49:42.508Z,76.00
2023-01-17T03:52:12.016Z,75.80
2023-01-17T03:54:40.173Z,74.90
2023-01-17T03:57:08.569Z,76.70
2023-01-17T03:59:36.727Z,48.80
2023-01-17T04:02:04.958Z,75.20
2023-01-17T04:04:34.168Z,74.90
2023-01-17T04:07:02.282Z,75.30
2023-01-17T04:09:34.046Z,74.80
2023-01-17T04:12:02.270Z,76.00
2023-01-17T04:14:30.505Z,76.50
2023-01-17T04:19:27.203Z,76.90
2023-01-17T04:21:55.331Z,76.50
2023-01-17T04:24:23.544Z,75.20
2023-01-17T04:26:53.077Z,62.50
2023-01-17T04:29:21.370Z,72.50
2023-01-17T04:31:49.608Z,74.90
2023-01-17T04:34:17.775Z,75.30
2023-01-17T04:36:45.895Z,73.70
2023-01-17T04:39:14.091Z,72.40
2023-01-17T04:41:42.207Z,73.10
2023-01-17T04:44:11.740Z,74.60
2023-01-17T04:46:39.871Z,72.80
2023-01-17T04:49:08.148Z,75.40
2023-01-17T04:51:36.255Z,75.30
2023-01-17T04:54:05.460Z,75.30
2023-01-17T04:56:34.476Z,72.60
2023-01-17T04:59:02.801Z,71.50
2023-01-17T05:01:32.436Z,74.20
2023-01-17T05:04:00.611Z,73.20
2023-01-17T05:06:28.745Z,74.60
2023-01-17T05:08:57.994Z,74.60
2023-01-17T05:11:26.211Z,73.00
2023-01-17T05:13:54.355Z,74.30
2023-01-17T05:16:22.568Z,75.90
2023-01-17T05:18:54.410Z,75.90
2023-01-17T05:21:22.608Z,76.00
2023-01-17T05:23:50.948Z,76.20
2023-01-17T05:26:19.162Z,76.50
2023-01-17T05:28:47.494Z,76.60
2023-01-17T05:31:15.748Z,77.60
2023-01-17T05:33:43.945Z,73.80
2023-01-17T05:36:13.487Z,77.30
2023-01-17T05:38:41.652Z,75.70
2023-01-17T05:43:38.256Z,74.30
2023-01-17T05:46:06.788Z,76.40
2023-01-17T05:48:34.939Z,77.00
2023-01-17T05:51:03.158Z,76.70
2023-01-17T05:53:32.979Z,77.20
2023-01-17T05:56:01.211Z,77.20
2023-01-17T05:58:29.962Z,77.30
2023-01-17T06:00:58.444Z,77.60
2023-01-17T06:05:55.167Z,77.90
2023-01-17T06:08:23.533Z,79.70
2023-01-17T06:10:53.113Z,50.00
2023-01-17T06:18:19.276Z,78.40
2023-01-17T06:20:54.714Z,60.50
2023-01-17T06:23:25.601Z,79.30
2023-01-17T06:25:55.380Z,50.70
2023-01-17T06:28:24.436Z,79.50
2023-01-17T06:33:21.074Z,67.00
2023-01-17T06:35:50.431Z,69.70
2023-01-17T06:38:18.957Z,66.60
2023-01-17T06:40:47.159Z,69.10
2023-01-17T06:43:16.785Z,70.30
2023-01-17T06:45:44.952Z,69.90
2023-01-17T06:48:13.138Z,73.10
2023-01-17T06:50:42.161Z,73.60
2023-01-17T06:53:10.996Z,70.00
2023-01-17T06:55:40.298Z,74.40
2023-01-17T07:00:40.722Z,76.20
2023-01-17T07:03:15.462Z,76.30
2023-01-17T07:05:44.590Z,74.70
2023-01-17T07:08:12.826Z,75.50
2023-01-17T07:13:09.549Z,77.10
2023-01-17T07:15:39.931Z,78.30
2023-01-17T07:18:08.673Z,78.90
2023-01-17T07:33:02.505Z,74.00
2023-01-17T07:35:30.685Z,72.90
2023-01-17T07:37:58.810Z,74.00
2023-01-17T07:40:27.451Z,75.50
2023-01-17T07:43:02.234Z,76.10
2023-01-17T07:45:30.438Z,77.40
2023-01-17T07:50:28.703Z,49.70
2023-01-17T07:52:56.820Z,78.20
2023-01-17T07:57:53.391Z,79.00
2023-01-17T08:00:23.122Z,79.40
2023-01-17T08:02:51.310Z,78.70
2023-01-17T08:12:47.860Z,47.70
2023-01-17T08:17:48.192Z,48.60
2023-01-17T08:25:16.227Z,79.20
2023-01-17T08:30:13.488Z,77.10
2023-01-17T08:35:11.198Z,49.30
2023-01-17T08:37:39.526Z,74.70
2023-01-17T08:40:09.214Z,77.00
2023-01-17T08:42:40.320Z,73.20
2023-01-17T08:45:10.969Z,75.20
2023-01-17T08:47:40.811Z,74.00
2023-01-17T08:50:09.732Z,71.10
2023-01-17T08:52:37.954Z,71.90
2023-01-17T08:55:09.042Z,70.70
2023-01-17T08:57:38.627Z,73.20
2023-01-17T09:00:08.069Z,73.20
2023-01-17T09:02:36.406Z,73.80
2023-01-17T09:05:04.766Z,76.80
2023-01-17T09:07:32.946Z,72.70
2023-01-17T09:10:01.129Z,74.90
2023-01-17T09:12:33.531Z,72.10
2023-01-17T09:15:03.198Z,53.80
2023-01-17T09:17:31.380Z,62.90
2023-01-17T09:19:59.551Z,70.90
2023-01-17T09:22:27.716Z,72.70
2023-01-17T09:24:55.846Z,71.50
2023-01-17T09:27:23.989Z,72.80
2023-01-17T09:29:52.107Z,73.70
2023-01-17T09:32:23.090Z,76.30
2023-01-17T09:34:51.351Z,75.20
2023-01-17T09:37:19.512Z,75.60
2023-01-17T09:39:48.141Z,75.80
2023-01-17T09:42:23.338Z,75.40
2023-01-17T09:44:52.712Z,76.20
2023-01-17T09:47:34.037Z,48.00
2023-01-17T09:50:12.424Z,46.70
2023-01-17T09:52:40.653Z,71.20
2023-01-17T09:55:14.207Z,43.00
2023-01-17T09:57:59.477Z,39.90
2023-01-17T10:00:47.951Z,70.10
2023-01-17T10:03:46.121Z,43.40
2023-01-17T10:06:30.669Z,70.90
2023-01-17T10:09:10.218Z,74.80
2023-01-17T10:11:50.831Z,71.70
2023-01-17T10:14:37.128Z,43.40
2023-01-17T10:17:17.593Z,69.40
2023-01-17T10:20:02.249Z,70.00
2023-01-17T10:22:59.060Z,44.70
2023-01-17T10:25:39.075Z,71.80
2023-01-17T10:28:13.826Z,44.50
2023-01-17T10:30:49.612Z,42.40
2023-01-17T10:33:21.364Z,71.20
2023-01-17T10:35:57.786Z,70.70
2023-01-17T10:41:00.723Z,69.90
2023-01-17T10:43:39.071Z,69.40
2023-01-17T10:46:09.910Z,54.50
2023-01-17T10:48:41.532Z,58.80
2023-01-17T10:51:19.480Z,40.60
2023-01-17T10:54:01.766Z,66.50
2023-01-17T10:56:31.096Z,63.50
2023-01-17T10:59:19.366Z,65.30
2023-01-17T11:01:49.731Z,67.80
2023-01-17T11:04:22.541Z,63.80
2023-01-17T11:07:12.686Z,41.00
2023-01-17T11:09:42.583Z,56.00
2023-01-17T11:12:24.495Z,38.10
2023-01-17T11:15:19.872Z,62.80
2023-01-17T11:17:53.182Z,62.30
2023-01-17T11:20:29.073Z,61.60
2023-01-17T11:23:12.559Z,63.10
2023-01-17T11:25:40.819Z,59.40
2023-01-17T11:28:21.864Z,61.80
2023-01-17T11:30:56.839Z,64.10
2023-01-17T11:33:53.805Z,59.80
2023-01-17T11:36:24.614Z,61.40
2023-01-17T11:38:58.988Z,66.00
2023-01-17T11:41:28.238Z,56.90
2023-01-17T11:43:58.872Z,49.00
2023-01-17T11:46:29.946Z,51.80
2023-01-17T11:49:00.134Z,56.20
2023-01-17T11:51:30.969Z,47.50
2023-01-17T11:54:14.876Z,52.00
2023-01-17T11:56:46.245Z,50.40
2023-01-17T11:59:28.082Z,50.20
2023-01-17T12:02:22.124Z,50.20
2023-01-17T12:05:01.677Z,44.70
2023-01-17T12:07:38.000Z,46.00
2023-01-17T12:10:16.541Z,52.60
2023-01-17T12:13:14.529Z,47.50
2023-01-17T12:16:00.045Z,29.30
2023-01-17T12:18:39.777Z,51.40
2023-01-17T12:21:17.868Z,43.20
2023-01-17T12:23:59.173Z,51.70
2023-01-17T12:26:36.790Z,48.50
2023-01-17T12:29:31.954Z,50.20
2023-01-17T12:32:24.837Z,29.70
2023-01-17T12:35:01.101Z,50.60
2023-01-17T12:37:34.517Z,45.60
2023-01-17T12:40:11.529Z,52.20
2023-01-17T12:42:48.660Z,53.40
2023-01-17T12:45:21.644Z,49.20
2023-01-17T12:47:55.496Z,29.50
2023-01-17T12:50:29.652Z,29.10
2023-01-17T12:53:04.174Z,29.50
2023-01-17T12:55:40.675Z,29.50
2023-01-17T12:58:18.155Z,29.70
2023-01-17T13:00:51.392Z,30.00
2023-01-17T13:03:27.476Z,29.90
2023-01-17T13:05:58.654Z,30.30
2023-01-17T13:08:31.106Z,31.10
2023-01-17T13:11:03.600Z,31.30
2023-01-17T13:13:35.732Z,31.70
2023-01-17T13:16:17.322Z,31.50
2023-01-17T13:18:48.946Z,31.80
2023-01-17T13:21:30.592Z,30.80
2023-01-17T13:24:18.361Z,30.00
2023-01-17T13:27:04.635Z,29.30
2023-01-17T13:29:42.861Z,29.00
2023-01-17T13:32:28.691Z,29.50
2023-01-17T13:35:15.179Z,29.40
2023-01-17T13:38:03.149Z,29.40
2023-01-17T13:40:38.439Z,29.20
2023-01-17T13:43:13.326Z,27.80
2023-01-17T13:45:51.515Z,28.20
2023-01-17T13:48:32.393Z,27.90
2023-01-17T13:51:02.338Z,26.40
2023-01-17T13:53:50.409Z,33.00
2023-01-17T13:56:27.855Z,27.90
2023-01-17T13:59:02.731Z,28.90
2023-01-17T14:01:56.156Z,29.50
2023-01-17T14:04:26.077Z,29.90
2023-01-17T14:07:03.908Z,30.40
2023-01-17T14:09:42.690Z,30.60
2023-01-17T14:12:32.111Z,30.60
2023-01-17T14:15:03.055Z,31.00
2023-01-17T14:17:56.866Z,31.20
2023-01-17T14:20:52.938Z,31.50
2023-01-17T14:23:59.385Z,31.40
2023-01-17T14:26:58.944Z,31.60
2023-01-17T14:29:45.285Z,31.60
2023-01-17T14:32:15.711Z,31.90
2023-01-17T14:34:47.073Z,31.90
2023-01-17T14:37:22.406Z,44.90
2023-01-17T14:39:52.082Z,43.80
2023-01-17T14:42:22.059Z,32.30
2023-01-17T14:44:53.169Z,32.30
2023-01-17T14:47:22.489Z,32.70
2023-01-17T14:50:11.161Z,39.10
2023-01-17T14:52:39.452Z,32.60
2023-01-17T14:55:16.820Z,41.00
2023-01-17T14:57:54.862Z,32.50
2023-01-17T15:00:29.098Z,33.00
2023-01-17T15:02:59.339Z,32.80
2023-01-17T15:05:31.936Z,43.50
2023-01-17T15:08:00.523Z,43.30
2023-01-17T15:10:31.390Z,33.40
2023-01-17T15:13:08.222Z,34.00
2023-01-17T15:15:39.055Z,43.60
2023-01-17T15:18:27.947Z,44.60
2023-01-17T15:21:01.364Z,44.40
2023-01-17T15:23:34.622Z,45.60
2023-01-17T15:26:04.453Z,45.70
2023-01-17T15:28:34.616Z,35.00
2023-01-17T15:31:09.569Z,47.80
2023-01-17T15:33:40.233Z,49.10
2023-01-17T15:36:13.207Z,35.60
2023-01-17T15:38:49.481Z,49.30
2023-01-17T15:41:21.815Z,50.80
2023-01-17T15:43:50.024Z,54.90
2023-01-17T15:46:23.610Z,56.20
2023-01-17T15:48:52.611Z,62.70
2023-01-17T15:51:37.523Z,33.90
2023-01-17T15:54:35.619Z,55.70
2023-01-17T15:57:18.679Z,56.40
2023-01-17T15:59:49.098Z,55.50
2023-01-17T16:02:44.580Z,59.60
2023-01-17T16:05:42.024Z,34.10
2023-01-17T16:08:40.386Z,35.00
2023-01-17T16:11:11.976Z,59.60
2023-01-17T16:13:42.357Z,60.30
2023-01-17T16:16:22.792Z,62.10
2023-01-17T16:19:02.999Z,61.70
2023-01-17T16:21:32.602Z,59.50
2023-01-17T16:24:03.902Z,59.80
2023-01-17T16:26:32.028Z,61.70
2023-01-17T16:29:00.206Z,62.20
2023-01-17T16:31:28.332Z,60.50
2023-01-17T16:33:56.492Z,62.00
2023-01-17T16:36:24.693Z,61.90
2023-01-17T16:38:53.464Z,62.60
2023-01-17T16:41:23.319Z,60.80
2023-01-17T16:43:59.159Z,59.40
2023-01-17T16:46:27.533Z,59.40
2023-01-17T16:48:55.840Z,60.20
2023-01-17T16:51:24.038Z,62.30
2023-01-17T16:53:52.227Z,62.30
2023-01-17T16:56:23.199Z,60.00
2023-01-17T16:58:53.294Z,62.00
2023-01-17T17:01:22.836Z,62.60
2023-01-17T17:03:51.239Z,37.30
2023-01-17T17:06:19.491Z,59.80
2023-01-17T17:08:47.670Z,59.60
2023-01-17T17:11:18.409Z,60.10
2023-01-17T17:13:49.356Z,59.80
2023-01-17T17:16:19.471Z,61.70
2023-01-17T17:18:48.265Z,36.40
2023-01-17T17:21:17.145Z,62.50
2023-01-17T17:23:46.478Z,62.00
2023-01-17T17:26:14.613Z,60.20
2023-01-17T17:28:42.783Z,60.00
2023-01-17T17:31:14.065Z,62.20
2023-01-17T17:33:43.616Z,59.40
2023-01-17T17:36:11.923Z,60.00
2023-01-17T17:38:51.197Z,62.00
2023-01-17T17:41:21.670Z,57.50
2023-01-17T17:43:56.480Z,67.00
2023-01-17T17:46:27.594Z,40.90
2023-01-17T17:48:57.664Z,37.40
2023-01-17T17:51:26.687Z,46.90
2023-01-17T17:53:55.726Z,61.50
2023-01-17T17:56:24.716Z,61.90
2023-01-17T17:58:53.429Z,60.90
2023-01-17T18:01:24.205Z,64.60
2023-01-17T18:03:56.012Z,63.90
2023-01-17T18:06:25.618Z,58.60
2023-01-17T18:08:55.589Z,60.50
2023-01-17T18:11:26.164Z,61.40
2023-01-17T18:13:55.329Z,61.80
2023-01-17T18:18:56.807Z,40.10
2023-01-17T18:21:27.148Z,41.30
2023-01-17T18:24:00.080Z,64.40
2023-01-17T18:26:30.561Z,64.10
2023-01-17T18:29:00.181Z,60.90
2023-01-17T18:31:34.895Z,58.10
2023-01-17T18:34:08.621Z,63.90
2023-01-17T18:36:37.510Z,62.60
2023-01-17T18:39:11.033Z,61.40
2023-01-17T18:41:39.195Z,61.90
2023-01-17T18:44:08.359Z,63.40
2023-01-17T18:46:37.125Z,61.40
2023-01-17T18:56:35.833Z,63.50
2023-01-17T19:01:36.212Z,63.90
2023-01-17T19:04:05.639Z,38.10
2023-01-17T19:06:37.539Z,62.70
2023-01-17T19:09:06.474Z,63.30
2023-01-17T19:11:35.974Z,64.20
2023-01-17T19:14:04.183Z,38.60
2023-01-17T19:16:35.216Z,62.80
2023-01-17T19:19:07.604Z,65.00
2023-01-17T19:21:37.876Z,67.40
2023-01-17T19:29:05.271Z,38.50
2023-01-17T19:31:37.418Z,66.90
2023-01-17T19:34:06.178Z,68.20
2023-01-17T19:39:09.485Z,38.70
2023-01-17T19:41:39.543Z,38.80
2023-01-17T19:46:37.240Z,43.50
2023-01-17T19:49:06.674Z,68.70
2023-01-17T19:51:35.963Z,66.40
2023-01-17T19:54:06.799Z,67.50
2023-01-17T19:56:36.023Z,67.00
2023-01-17T20:01:34.514Z,68.70
2023-01-17T20:04:04.488Z,39.30
2023-01-17T20:09:03.208Z,65.50
2023-01-17T20:11:33.893Z,66.70
2023-01-17T20:16:32.989Z,41.10
2023-01-17T20:19:02.790Z,71.40
2023-01-17T20:21:32.616Z,41.90
2023-01-17T20:24:03.423Z,41.70
2023-01-17T20:26:40.262Z,71.10
2023-01-17T20:29:11.345Z,43.10
2023-01-17T20:34:10.882Z,72.70
2023-01-17T20:36:42.740Z,73.80
2023-01-17T20:39:14.365Z,42.20
2023-01-17T20:41:44.912Z,46.30
2023-01-17T20:44:15.132Z,44.10
2023-01-17T20:49:15.333Z,43.90
2023-01-17T20:51:48.718Z,74.50
2023-01-17T20:54:19.114Z,44.70
2023-01-17T20:56:49.650Z,44.70
2023-01-17T20:59:23.044Z,44.80
2023-01-17T21:06:55.323Z,41.60
2023-01-17T21:11:54.446Z,44.60
2023-01-17T21:26:51.388Z,74.00
2023-01-17T21:29:21.053Z,73.90
2023-01-17T21:31:49.340Z,65.90
2023-01-17T21:34:17.494Z,68.00
2023-01-17T21:39:16.673Z,70.60
2023-01-17T21:41:47.916Z,44.80
2023-01-17T21:44:19.267Z,45.90
2023-01-17T21:46:54.227Z,74.00
2023-01-17T21:52:10.838Z,69.10
2023-01-17T21:54:56.505Z,70.70
2023-01-17T21:57:42.259Z,73.50
2023-01-17T22:00:14.432Z,71.90
2023-01-17T22:02:45.885Z,48.10
2023-01-17T22:05:16.429Z,71.10
2023-01-17T22:10:44.530Z,73.80
2023-01-17T22:13:14.016Z,70.30
2023-01-17T22:15:42.503Z,67.80
2023-01-17T22:18:12.150Z,69.70
2023-01-17T22:20:41.666Z,68.70
2023-01-17T22:23:10.045Z,73.50
2023-01-17T22:25:38.396Z,73.00
2023-01-17T22:28:06.687Z,71.30
2023-01-17T22:30:34.824Z,72.00
2023-01-17T22:33:03.188Z,72.30
2023-01-17T22:35:32.741Z,72.20
2023-01-17T22:38:01.943Z,67.90
2023-01-17T22:40:31.624Z,69.40
2023-01-17T22:42:59.994Z,67.90
2023-01-17T22:45:29.006Z,70.10
2023-01-17T22:47:57.164Z,70.00
2023-01-17T22:50:26.338Z,67.90
2023-01-17T22:52:56.490Z,64.80
2023-01-17T22:55:24.878Z,67.10
2023-01-17T22:57:53.059Z,68.40
2023-01-17T23:00:21.538Z,72.50
2023-01-17T23:02:49.753Z,70.10
2023-01-17T23:05:18.047Z,69.30
2023-01-17T23:07:51.624Z,68.40
2023-01-17T23:10:35.087Z,54.50
2023-01-17T23:13:03.256Z,61.40
2023-01-17T23:15:57.136Z,66.90
2023-01-17T23:18:42.897Z,69.70
2023-01-17T23:21:11.332Z,70.80
2023-01-17T23:23:40.240Z,70.40
2023-01-17T23:26:09.765Z,72.70
2023-01-17T23:28:36.973Z,69.50
2023-01-17T23:31:06.461Z,67.30
2023-01-17T23:33:34.647Z,64.70
2023-01-17T23:36:03.512Z,65.40
2023-01-17T23:38:37.651Z,65.00
2023-01-17T23:41:24.756Z,52.50
2023-01-17T23:43:55.443Z,64.10
2023-01-17T23:46:24.535Z,65.60
2023-01-17T23:48:52.900Z,63.80
2023-01-17T23:51:21.076Z,66.00
2023-01-17T23:53:50.995Z,69.00
2023-01-17T23:56:20.670Z,44.90
2023-01-17T23:58:49.124Z,63.70
